sensor_id;sensor_type;location;lat;lon;timestamp;pressure;altitude;pressure_sealevel;temperature;humidity
13068;BME280;6600;51.362;6.686;2023-01-28T00:01:41;102406.69;;;4.48;97.70
13068;BME280;6600;51.362;6.686;2023-01-28T00:04:06;102413.44;;;4.52;97.96
13068;BME280;6600;51.362;6.686;2023-01-28T00:06:32;102408.22;;;4.41;98.34
13068;BME280;6600;51.362;6.686;2023-01-28T00:08:57;102405.69;;;4.30;97.88
13068;BME280;6600;51.362;6.686;2023-01-28T00:11:23;102409.75;;;4.34;97.94
13068;BME280;6600;51.362;6.686;2023-01-28T00:13:52;102407.25;;;4.42;97.77
13068;BME280;6600;51.362;6.686;2023-01-28T00:16:18;102416.03;;;4.33;97.47
13068;BME280;6600;51.362;6.686;2023-01-28T00:18:43;102401.66;;;4.45;97.20
13068;BME280;6600;51.362;6.686;2023-01-28T00:21:11;102416.81;;;4.54;96.92
13068;BME280;6600;51.362;6.686;2023-01-28T00:23:38;102415.22;;;4.42;97.55
13068;BME280;6600;51.362;6.686;2023-01-28T00:26:06;102401.38;;;4.48;97.15
13068;BME280;6600;51.362;6.686;2023-01-28T00:28:32;102403.63;;;4.43;97.25
13068;BME280;6600;51.362;6.686;2023-01-28T00:30:57;102409.78;;;4.44;97.00
13068;BME280;6600;51.362;6.686;2023-01-28T00:33:23;102412.56;;;4.42;96.30
13068;BME280;6600;51.362;6.686;2023-01-28T00:35:59;102415.94;;;4.44;96.83
13068;BME280;6600;51.362;6.686;2023-01-28T00:38:25;102422.03;;;4.35;96.63
13068;BME280;6600;51.362;6.686;2023-01-28T00:40:50;102420.09;;;4.37;96.60
13068;BME280;6600;51.362;6.686;2023-01-28T00:43:16;102417.53;;;4.26;96.74
13068;BME280;6600;51.362;6.686;2023-01-28T00:45:41;102416.63;;;4.16;96.44
13068;BME280;6600;51.362;6.686;2023-01-28T00:48:06;102423.22;;;4.22;96.46
13068;BME280;6600;51.362;6.686;2023-01-28T00:50:32;102412.91;;;4.28;96.42
13068;BME280;6600;51.362;6.686;2023-01-28T00:52:57;102406.81;;;4.07;96.47
13068;BME280;6600;51.362;6.686;2023-01-28T00:55:23;102410.63;;;4.14;96.46
13068;BME280;6600;51.362;6.686;2023-01-28T00:57:48;102414.94;;;4.15;96.13
13068;BME280;6600;51.362;6.686;2023-01-28T01:00:14;102412.44;;;4.14;95.87
13068;BME280;6600;51.362;6.686;2023-01-28T01:02:40;102420.25;;;4.15;96.41
13068;BME280;6600;51.362;6.686;2023-01-28T01:05:06;102421.69;;;4.19;95.74
13068;BME280;6600;51.362;6.686;2023-01-28T01:07:32;102418.72;;;4.13;95.81
13068;BME280;6600;51.362;6.686;2023-01-28T01:10:07;102423.72;;;4.06;96.69
13068;BME280;6600;51.362;6.686;2023-01-28T01:12:32;102421.97;;;3.95;96.80
13068;BME280;6600;51.362;6.686;2023-01-28T01:14:58;102420.88;;;3.98;96.68
13068;BME280;6600;51.362;6.686;2023-01-28T01:17:23;102421.84;;;3.97;96.04
13068;BME280;6600;51.362;6.686;2023-01-28T01:19:49;102418.69;;;4.03;96.05
13068;BME280;6600;51.362;6.686;2023-01-28T01:22:14;102415.72;;;3.96;96.67
13068;BME280;6600;51.362;6.686;2023-01-28T01:24:39;102415.72;;;3.96;96.85
13068;BME280;6600;51.362;6.686;2023-01-28T01:27:05;102414.13;;;3.94;96.24
13068;BME280;6600;51.362;6.686;2023-01-28T01:29:30;102415.94;;;3.93;96.69
13068;BME280;6600;51.362;6.686;2023-01-28T01:31:58;102407.41;;;3.90;97.09
13068;BME280;6600;51.362;6.686;2023-01-28T01:34:23;102405.28;;;3.84;96.44
13068;BME280;6600;51.362;6.686;2023-01-28T01:36:48;102411.47;;;3.94;95.55
13068;BME280;6600;51.362;6.686;2023-01-28T01:39:14;102417.63;;;3.94;95.42
13068;BME280;6600;51.362;6.686;2023-01-28T01:41:39;102418.94;;;3.79;95.96
13068;BME280;6600;51.362;6.686;2023-01-28T01:44:05;102428.31;;;3.63;96.50
13068;BME280;6600;51.362;6.686;2023-01-28T01:46:45;102426.13;;;3.68;96.74
13068;BME280;6600;51.362;6.686;2023-01-28T01:51:45;102433.75;;;3.82;94.91
13068;BME280;6600;51.362;6.686;2023-01-28T01:54:12;102433.34;;;3.86;94.40
13068;BME280;6600;51.362;6.686;2023-01-28T01:56:41;102433.50;;;3.85;95.39
13068;BME280;6600;51.362;6.686;2023-01-28T01:59:11;102427.41;;;3.94;95.55
13068;BME280;6600;51.362;6.686;2023-01-28T02:01:39;102432.69;;;3.94;95.26
13068;BME280;6600;51.362;6.686;2023-01-28T02:04:28;102428.81;;;3.98;95.19
13068;BME280;6600;51.362;6.686;2023-01-28T02:06:54;102432.28;;;3.89;95.10
13068;BME280;6600;51.362;6.686;2023-01-28T02:11:47;102433.50;;;3.85;95.72
13068;BME280;6600;51.362;6.686;2023-01-28T02:14:12;102436.53;;;3.80;95.68
13068;BME280;6600;51.362;6.686;2023-01-28T02:16:38;102433.56;;;3.74;96.11
13068;BME280;6600;51.362;6.686;2023-01-28T02:19:03;102436.72;;;3.68;96.19
13068;BME280;6600;51.362;6.686;2023-01-28T02:24:46;102446.13;;;3.72;95.80
13068;BME280;6600;51.362;6.686;2023-01-28T02:30:14;102451.47;;;3.61;95.50
13068;BME280;6600;51.362;6.686;2023-01-28T02:40:27;102450.88;;;3.25;94.90
13068;BME280;6600;51.362;6.686;2023-01-28T02:42:56;102459.78;;;3.24;95.04
13068;BME280;6600;51.362;6.686;2023-01-28T02:45:31;102455.25;;;3.15;94.79
13068;BME280;6600;51.362;6.686;2023-01-28T02:48:17;102456.69;;;3.19;94.51
13068;BME280;6600;51.362;6.686;2023-01-28T02:50:53;102455.25;;;3.15;95.05
13068;BME280;6600;51.362;6.686;2023-01-28T02:53:32;102459.09;;;3.11;95.11
13068;BME280;6600;51.362;6.686;2023-01-28T02:58:59;102454.41;;;3.15;95.09
13068;BME280;6600;51.362;6.686;2023-01-28T03:01:47;102458.16;;;3.12;94.68
13068;BME280;6600;51.362;6.686;2023-01-28T03:04:22;102456.22;;;3.14;95.35
13068;BME280;6600;51.362;6.686;2023-01-28T03:06:55;102450.44;;;3.20;94.63
13068;BME280;6600;51.362;6.686;2023-01-28T03:09:22;102458.84;;;3.14;94.61
13068;BME280;6600;51.362;6.686;2023-01-28T03:12:24;102457.34;;;3.32;94.88
13068;BME280;6600;51.362;6.686;2023-01-28T03:15:12;102459.63;;;3.37;94.06
13068;BME280;6600;51.362;6.686;2023-01-28T03:23:56;102460.28;;;3.18;93.90
13068;BME280;6600;51.362;6.686;2023-01-28T03:26:57;102458.81;;;3.25;92.63
13068;BME280;6600;51.362;6.686;2023-01-28T03:29:46;102452.75;;;3.14;92.57
13068;BME280;6600;51.362;6.686;2023-01-28T03:32:32;102455.00;;;3.18;92.39
13068;BME280;6600;51.362;6.686;2023-01-28T03:35:18;102459.69;;;3.15;92.63
13068;BME280;6600;51.362;6.686;2023-01-28T03:38:07;102449.00;;;3.16;92.40
13068;BME280;6600;51.362;6.686;2023-01-28T03:41:11;102460.81;;;3.12;92.49
13068;BME280;6600;51.362;6.686;2023-01-28T03:43:36;102459.34;;;3.08;91.83
13068;BME280;6600;51.362;6.686;2023-01-28T03:46:03;102461.50;;;3.14;91.29
13068;BME280;6600;51.362;6.686;2023-01-28T03:48:30;102458.25;;;3.11;91.45
13068;BME280;6600;51.362;6.686;2023-01-28T03:50:57;102464.06;;;3.04;91.53
13068;BME280;6600;51.362;6.686;2023-01-28T03:53:24;102461.31;;;3.06;92.15
13068;BME280;6600;51.362;6.686;2023-01-28T03:55:51;102460.72;;;3.02;91.98
13068;BME280;6600;51.362;6.686;2023-01-28T03:58:18;102468.97;;;3.20;91.52
13068;BME280;6600;51.362;6.686;2023-01-28T04:00:43;102463.19;;;3.15;90.88
13068;BME280;6600;51.362;6.686;2023-01-28T04:03:10;102465.13;;;3.13;91.17
13068;BME280;6600;51.362;6.686;2023-01-28T04:06:00;102475.69;;;3.24;90.87
13068;BME280;6600;51.362;6.686;2023-01-28T04:08:25;102468.75;;;3.12;91.60
13068;BME280;6600;51.362;6.686;2023-01-28T04:10:51;102475.34;;;3.18;91.60
13068;BME280;6600;51.362;6.686;2023-01-28T04:13:16;102467.63;;;3.26;91.77
13068;BME280;6600;51.362;6.686;2023-01-28T04:15:42;102470.88;;;3.29;91.75
13068;BME280;6600;51.362;6.686;2023-01-28T04:18:08;102477.63;;;3.22;91.28
13068;BME280;6600;51.362;6.686;2023-01-28T04:20:34;102481.47;;;3.18;91.25
13068;BME280;6600;51.362;6.686;2023-01-28T04:23:00;102475.09;;;3.21;90.66
13068;BME280;6600;51.362;6.686;2023-01-28T04:25:25;102481.06;;;3.02;90.40
13068;BME280;6600;51.362;6.686;2023-01-28T04:27:51;102481.31;;;2.99;90.58
13068;BME280;6600;51.362;6.686;2023-01-28T04:30:16;102487.53;;;3.09;90.54
13068;BME280;6600;51.362;6.686;2023-01-28T04:32:42;102487.41;;;3.11;90.94
13068;BME280;6600;51.362;6.686;2023-01-28T04:35:07;102494.72;;;3.18;90.37
13068;BME280;6600;51.362;6.686;2023-01-28T04:37:33;102486.00;;;3.07;90.95
13068;BME280;6600;51.362;6.686;2023-01-28T04:39:58;102486.69;;;3.09;91.09
13068;BME280;6600;51.362;6.686;2023-01-28T04:42:23;102492.59;;;3.12;90.51
13068;BME280;6600;51.362;6.686;2023-01-28T04:44:49;102493.78;;;3.08;90.10
13068;BME280;6600;51.362;6.686;2023-01-28T04:47:14;102494.53;;;3.10;89.83
13068;BME280;6600;51.362;6.686;2023-01-28T04:49:39;102487.19;;;3.02;90.19
13068;BME280;6600;51.362;6.686;2023-01-28T04:52:05;102486.59;;;2.99;89.77
13068;BME280;6600;51.362;6.686;2023-01-28T04:54:30;102484.16;;;3.07;89.55
13068;BME280;6600;51.362;6.686;2023-01-28T04:56:55;102483.22;;;2.97;89.05
13068;BME280;6600;51.362;6.686;2023-01-28T04:59:20;102488.03;;;3.03;88.97
13068;BME280;6600;51.362;6.686;2023-01-28T05:01:48;102481.50;;;3.07;88.99
13068;BME280;6600;51.362;6.686;2023-01-28T05:04:13;102480.09;;;3.03;89.21
13068;BME280;6600;51.362;6.686;2023-01-28T05:06:38;102475.00;;;3.11;88.95
13068;BME280;6600;51.362;6.686;2023-01-28T05:09:04;102472.63;;;2.97;89.40
13068;BME280;6600;51.362;6.686;2023-01-28T05:11:29;102475.75;;;3.02;88.87
13068;BME280;6600;51.362;6.686;2023-01-28T05:13:54;102478.16;;;2.94;89.55
13068;BME280;6600;51.362;6.686;2023-01-28T05:16:20;102471.06;;;3.05;89.59
13068;BME280;6600;51.362;6.686;2023-01-28T05:18:45;102474.53;;;3.06;89.28
13068;BME280;6600;51.362;6.686;2023-01-28T05:21:12;102475.16;;;2.98;88.55
13068;BME280;6600;51.362;6.686;2023-01-28T05:23:38;102475.03;;;3.00;88.25
13068;BME280;6600;51.362;6.686;2023-01-28T05:26:03;102475.13;;;3.10;87.94
13068;BME280;6600;51.362;6.686;2023-01-28T05:28:28;102481.81;;;2.93;87.30
13068;BME280;6600;51.362;6.686;2023-01-28T05:30:54;102476.63;;;2.91;87.02
13068;BME280;6600;51.362;6.686;2023-01-28T05:33:19;102482.00;;;3.01;86.66
13068;BME280;6600;51.362;6.686;2023-01-28T05:35:44;102480.59;;;2.86;87.23
13068;BME280;6600;51.362;6.686;2023-01-28T05:38:10;102488.75;;;2.94;86.71
13068;BME280;6600;51.362;6.686;2023-01-28T05:40:35;102495.25;;;3.01;86.08
13068;BME280;6600;51.362;6.686;2023-01-28T05:43:00;102490.69;;;3.03;86.58
13068;BME280;6600;51.362;6.686;2023-01-28T05:45:26;102490.28;;;3.08;87.08
13068;BME280;6600;51.362;6.686;2023-01-28T05:47:51;102496.44;;;3.08;86.49
13068;BME280;6600;51.362;6.686;2023-01-28T05:50:17;102501.47;;;3.11;86.36
13068;BME280;6600;51.362;6.686;2023-01-28T05:52:43;102509.22;;;3.03;86.35
13068;BME280;6600;51.362;6.686;2023-01-28T05:55:09;102516.44;;;3.01;86.75
13068;BME280;6600;51.362;6.686;2023-01-28T05:57:35;102519.09;;;2.90;87.01
13068;BME280;6600;51.362;6.686;2023-01-28T06:00:00;102521.25;;;2.96;86.91
13068;BME280;6600;51.362;6.686;2023-01-28T06:02:26;102507.38;;;3.03;86.69
13068;BME280;6600;51.362;6.686;2023-01-28T06:04:51;102509.22;;;3.03;86.64
13068;BME280;6600;51.362;6.686;2023-01-28T06:07:16;102509.94;;;2.94;86.81
13068;BME280;6600;51.362;6.686;2023-01-28T06:09:45;102505.59;;;3.04;86.94
13068;BME280;6600;51.362;6.686;2023-01-28T06:12:10;102503.78;;;2.93;86.98
13068;BME280;6600;51.362;6.686;2023-01-28T06:14:35;102509.09;;;2.93;86.81
13068;BME280;6600;51.362;6.686;2023-01-28T06:17:01;102510.19;;;2.91;87.02
13068;BME280;6600;51.362;6.686;2023-01-28T06:19:26;102518.38;;;2.99;87.26
13068;BME280;6600;51.362;6.686;2023-01-28T06:21:52;102520.28;;;2.97;87.41
13068;BME280;6600;51.362;6.686;2023-01-28T06:24:17;102514.97;;;2.97;87.32
13068;BME280;6600;51.362;6.686;2023-01-28T06:26:43;102509.69;;;2.97;87.30
13068;BME280;6600;51.362;6.686;2023-01-28T06:29:08;102510.88;;;3.04;86.99
13068;BME280;6600;51.362;6.686;2023-01-28T06:31:34;102517.88;;;2.94;86.92
13068;BME280;6600;51.362;6.686;2023-01-28T06:33:59;102515.47;;;2.91;86.92
13068;BME280;6600;51.362;6.686;2023-01-28T06:36:25;102516.94;;;2.95;87.10
13068;BME280;6600;51.362;6.686;2023-01-28T06:38:50;102509.00;;;2.84;87.46
13068;BME280;6600;51.362;6.686;2023-01-28T06:41:15;102512.59;;;2.83;87.38
13068;BME280;6600;51.362;6.686;2023-01-28T06:43:41;102513.31;;;2.74;86.95
13068;BME280;6600;51.362;6.686;2023-01-28T06:46:06;102519.09;;;2.68;87.41
13068;BME280;6600;51.362;6.686;2023-01-28T06:48:31;102511.88;;;2.70;86.83
13068;BME280;6600;51.362;6.686;2023-01-28T06:50:57;102513.81;;;2.79;87.13
13068;BME280;6600;51.362;6.686;2023-01-28T06:53:22;102519.47;;;2.74;86.90
13068;BME280;6600;51.362;6.686;2023-01-28T06:55:47;102502.63;;;2.75;86.58
13068;BME280;6600;51.362;6.686;2023-01-28T06:58:13;102511.03;;;2.69;86.34
13068;BME280;6600;51.362;6.686;2023-01-28T07:00:38;102508.03;;;2.74;86.62
13068;BME280;6600;51.362;6.686;2023-01-28T07:03:04;102513.56;;;2.71;86.82
13068;BME280;6600;51.362;6.686;2023-01-28T07:05:29;102509.47;;;2.67;87.21
13068;BME280;6600;51.362;6.686;2023-01-28T07:07:55;102510.91;;;2.60;87.13
13068;BME280;6600;51.362;6.686;2023-01-28T07:10:20;102517.44;;;2.44;87.41
13068;BME280;6600;51.362;6.686;2023-01-28T07:12:46;102526.78;;;2.60;87.20
13068;BME280;6600;51.362;6.686;2023-01-28T07:15:12;102521.75;;;2.57;87.01
13068;BME280;6600;51.362;6.686;2023-01-28T07:17:40;102525.94;;;2.59;88.00
13068;BME280;6600;51.362;6.686;2023-01-28T07:20:06;102527.06;;;2.68;88.18
13068;BME280;6600;51.362;6.686;2023-01-28T07:22:31;102514.78;;;2.78;88.59
13068;BME280;6600;51.362;6.686;2023-01-28T07:24:57;102520.41;;;2.73;87.62
13068;BME280;6600;51.362;6.686;2023-01-28T07:27:23;102516.22;;;2.82;87.33
13068;BME280;6600;51.362;6.686;2023-01-28T07:29:48;102514.06;;;2.65;87.24
13068;BME280;6600;51.362;6.686;2023-01-28T07:32:13;102523.66;;;2.77;87.50
13068;BME280;6600;51.362;6.686;2023-01-28T07:34:39;102515.00;;;2.64;88.05
13068;BME280;6600;51.362;6.686;2023-01-28T07:37:07;102519.59;;;2.62;88.17
13068;BME280;6600;51.362;6.686;2023-01-28T07:39:32;102524.66;;;2.65;87.43
13068;BME280;6600;51.362;6.686;2023-01-28T07:41:58;102522.00;;;2.76;87.25
13068;BME280;6600;51.362;6.686;2023-01-28T07:44:24;102522.97;;;2.86;87.15
13068;BME280;6600;51.362;6.686;2023-01-28T07:46:49;102514.53;;;2.81;86.93
13068;BME280;6600;51.362;6.686;2023-01-28T07:49:14;102520.06;;;2.78;87.08
13068;BME280;6600;51.362;6.686;2023-01-28T07:51:40;102523.31;;;2.70;86.46
13068;BME280;6600;51.362;6.686;2023-01-28T07:54:05;102532.34;;;2.79;86.72
13068;BME280;6600;51.362;6.686;2023-01-28T07:56:30;102535.94;;;2.89;86.68
13068;BME280;6600;51.362;6.686;2023-01-28T07:58:56;102534.25;;;2.99;86.47
13068;BME280;6600;51.362;6.686;2023-01-28T08:01:21;102541.81;;;3.03;86.52
13068;BME280;6600;51.362;6.686;2023-01-28T08:03:46;102559.50;;;3.14;87.06
13068;BME280;6600;51.362;6.686;2023-01-28T08:06:12;102573.47;;;3.16;87.13
13068;BME280;6600;51.362;6.686;2023-01-28T08:08:37;102566.75;;;3.12;87.61
13068;BME280;6600;51.362;6.686;2023-01-28T08:11:07;102564.34;;;3.20;87.39
13068;BME280;6600;51.362;6.686;2023-01-28T08:13:33;102574.94;;;3.20;87.40
13068;BME280;6600;51.362;6.686;2023-01-28T08:15:58;102572.53;;;3.17;87.27
13068;BME280;6600;51.362;6.686;2023-01-28T08:18:24;102573.72;;;3.13;87.35
13068;BME280;6600;51.362;6.686;2023-01-28T08:20:54;102575.88;;;3.30;87.60
13068;BME280;6600;51.362;6.686;2023-01-28T08:23:19;102574.78;;;3.22;86.96
13068;BME280;6600;51.362;6.686;2023-01-28T08:25:46;102581.19;;;3.30;86.79
13068;BME280;6600;51.362;6.686;2023-01-28T08:28:13;102580.31;;;3.30;86.70
13068;BME280;6600;51.362;6.686;2023-01-28T08:30:38;102580.69;;;3.14;86.76
13068;BME280;6600;51.362;6.686;2023-01-28T08:33:07;102577.94;;;3.16;86.65
13068;BME280;6600;51.362;6.686;2023-01-28T08:35:34;102585.28;;;3.23;86.95
13068;BME280;6600;51.362;6.686;2023-01-28T08:38:01;102578.72;;;3.38;86.74
13068;BME280;6600;51.362;6.686;2023-01-28T08:40:27;102580.44;;;3.39;86.44
13068;BME280;6600;51.362;6.686;2023-01-28T08:42:53;102593.22;;;3.23;85.57
13068;BME280;6600;51.362;6.686;2023-01-28T08:45:21;102602.22;;;3.21;85.67
13068;BME280;6600;51.362;6.686;2023-01-28T08:47:52;102601.66;;;3.17;86.04
13068;BME280;6600;51.362;6.686;2023-01-28T08:50:18;102603.72;;;3.02;85.76
13068;BME280;6600;51.362;6.686;2023-01-28T08:52:45;102623.09;;;2.92;86.03
13068;BME280;6600;51.362;6.686;2023-01-28T08:55:11;102619.69;;;2.90;85.58
13068;BME280;6600;51.362;6.686;2023-01-28T08:57:37;102625.94;;;3.00;85.44
13068;BME280;6600;51.362;6.686;2023-01-28T09:00:03;102634.16;;;3.08;85.69
13068;BME280;6600;51.362;6.686;2023-01-28T09:02:29;102634.16;;;3.08;85.83
13068;BME280;6600;51.362;6.686;2023-01-28T09:04:54;102645.72;;;2.96;86.29
13068;BME280;6600;51.362;6.686;2023-01-28T09:07:20;102639.94;;;3.02;86.64
13068;BME280;6600;51.362;6.686;2023-01-28T09:09:45;102638.97;;;2.92;86.70
13068;BME280;6600;51.362;6.686;2023-01-28T09:12:10;102637.41;;;3.00;86.41
13068;BME280;6600;51.362;6.686;2023-01-28T09:14:36;102645.47;;;2.99;86.30
13068;BME280;6600;51.362;6.686;2023-01-28T09:17:03;102646.66;;;2.95;85.67
13068;BME280;6600;51.362;6.686;2023-01-28T09:19:29;102661.13;;;3.02;85.89
13068;BME280;6600;51.362;6.686;2023-01-28T09:21:54;102660.03;;;3.04;85.90
13068;BME280;6600;51.362;6.686;2023-01-28T09:24:20;102669.53;;;2.85;85.88
13068;BME280;6600;51.362;6.686;2023-01-28T09:26:48;102652.91;;;2.94;86.70
13068;BME280;6600;51.362;6.686;2023-01-28T09:29:13;102648.72;;;2.91;85.85
13068;BME280;6600;51.362;6.686;2023-01-28T09:31:39;102664.47;;;3.04;85.89
13068;BME280;6600;51.362;6.686;2023-01-28T09:34:05;102667.13;;;2.93;85.62
13068;BME280;6600;51.362;6.686;2023-01-28T09:36:30;102668.56;;;2.97;85.72
13068;BME280;6600;51.362;6.686;2023-01-28T09:38:57;102672.28;;;2.83;85.43
13068;BME280;6600;51.362;6.686;2023-01-28T09:41:24;102663.28;;;2.97;85.01
13068;BME280;6600;51.362;6.686;2023-01-28T09:44:05;102673.41;;;3.03;85.03
13068;BME280;6600;51.362;6.686;2023-01-28T09:46:33;102669.31;;;3.10;85.06
13068;BME280;6600;51.362;6.686;2023-01-28T09:49:02;102675.56;;;2.98;84.55
13068;BME280;6600;51.362;6.686;2023-01-28T09:51:37;102676.53;;;3.08;85.18
13068;BME280;6600;51.362;6.686;2023-01-28T09:57:03;102674.50;;;3.23;84.48
13068;BME280;6600;51.362;6.686;2023-01-28T09:59:33;102670.28;;;3.20;84.15
13068;BME280;6600;51.362;6.686;2023-01-28T10:02:31;102671.13;;;3.32;83.51
13068;BME280;6600;51.362;6.686;2023-01-28T10:05:19;102661.00;;;3.37;83.27
13068;BME280;6600;51.362;6.686;2023-01-28T10:07:50;102659.44;;;3.23;82.75
13068;BME280;6600;51.362;6.686;2023-01-28T10:10:23;102673.41;;;3.25;83.96
13068;BME280;6600;51.362;6.686;2023-01-28T10:15:46;102669.66;;;3.28;82.06
13068;BME280;6600;51.362;6.686;2023-01-28T10:18:14;102663.28;;;3.41;81.73
13068;BME280;6600;51.362;6.686;2023-01-28T10:20:44;102662.31;;;3.42;82.07
13068;BME280;6600;51.362;6.686;2023-01-28T10:23:20;102662.31;;;3.53;82.77
13068;BME280;6600;51.362;6.686;2023-01-28T10:25:47;102660.88;;;3.49;81.84
13068;BME280;6600;51.362;6.686;2023-01-28T10:28:24;102655.66;;;3.59;82.39
13068;BME280;6600;51.362;6.686;2023-01-28T10:30:51;102645.91;;;3.71;82.04
13068;BME280;6600;51.362;6.686;2023-01-28T10:33:27;102644.66;;;3.86;82.34
13068;BME280;6600;51.362;6.686;2023-01-28T10:35:55;102656.25;;;3.74;81.31
13068;BME280;6600;51.362;6.686;2023-01-28T10:38:24;102657.47;;;3.70;81.35
13068;BME280;6600;51.362;6.686;2023-01-28T10:40:51;102660.38;;;3.55;81.71
13068;BME280;6600;51.362;6.686;2023-01-28T10:43:21;102669.53;;;3.63;81.45
13068;BME280;6600;51.362;6.686;2023-01-28T10:46:15;102668.22;;;3.68;82.01
13068;BME280;6600;51.362;6.686;2023-01-28T10:51:45;102673.13;;;3.73;81.27
13068;BME280;6600;51.362;6.686;2023-01-28T10:54:24;102661.56;;;3.74;81.37
13068;BME280;6600;51.362;6.686;2023-01-28T10:57:01;102675.81;;;3.39;82.03
13068;BME280;6600;51.362;6.686;2023-01-28T10:59:29;102674.72;;;3.42;81.81
13068;BME280;6600;51.362;6.686;2023-01-28T11:01:57;102670.03;;;3.45;81.91
13068;BME280;6600;51.362;6.686;2023-01-28T11:04:27;102682.09;;;3.27;82.42
13068;BME280;6600;51.362;6.686;2023-01-28T11:06:59;102688.34;;;3.15;82.97
13068;BME280;6600;51.362;6.686;2023-01-28T11:09:28;102678.72;;;3.03;83.60
13068;BME280;6600;51.362;6.686;2023-01-28T11:11:55;102687.59;;;3.02;83.99
13068;BME280;6600;51.362;6.686;2023-01-28T11:14:24;102681.13;;;3.17;84.79
13068;BME280;6600;51.362;6.686;2023-01-28T11:16:51;102689.50;;;3.00;84.97
13068;BME280;6600;51.362;6.686;2023-01-28T11:19:18;102695.09;;;3.19;84.95
13068;BME280;6600;51.362;6.686;2023-01-28T11:21:53;102695.66;;;3.00;85.36
13068;BME280;6600;51.362;6.686;2023-01-28T11:24:28;102691.44;;;2.98;85.39
13068;BME280;6600;51.362;6.686;2023-01-28T11:26:56;102685.31;;;2.97;85.33
13068;BME280;6600;51.362;6.686;2023-01-28T11:29:32;102678.09;;;2.99;85.25
13068;BME280;6600;51.362;6.686;2023-01-28T11:31:59;102677.34;;;2.86;85.29
13068;BME280;6600;51.362;6.686;2023-01-28T11:34:31;102674.06;;;2.72;84.93
13068;BME280;6600;51.362;6.686;2023-01-28T11:37:12;102674.06;;;2.72;85.02
13068;BME280;6600;51.362;6.686;2023-01-28T11:39:40;102664.72;;;2.79;85.39
13068;BME280;6600;51.362;6.686;2023-01-28T11:42:17;102671.84;;;2.89;85.52
13068;BME280;6600;51.362;6.686;2023-01-28T11:44:43;102668.53;;;2.75;85.52
13068;BME280;6600;51.362;6.686;2023-01-28T11:53:02;102675.38;;;2.66;85.59
13068;BME280;6600;51.362;6.686;2023-01-28T11:56:05;102672.16;;;2.74;85.57
13068;BME280;6600;51.362;6.686;2023-01-28T12:04:16;102658.69;;;2.88;85.64
13068;BME280;6600;51.362;6.686;2023-01-28T12:09:39;102644.47;;;2.78;86.28
13068;BME280;6600;51.362;6.686;2023-01-28T12:12:17;102643.53;;;2.79;86.07
13068;BME280;6600;51.362;6.686;2023-01-28T12:18:04;102630.78;;;3.06;85.21
13068;BME280;6600;51.362;6.686;2023-01-28T12:21:02;102626.22;;;3.19;85.10
13068;BME280;6600;51.362;6.686;2023-01-28T12:43:21;102584.94;;;3.71;82.59
13068;BME280;6600;51.362;6.686;2023-01-28T12:46:00;102568.06;;;3.72;82.25
13068;BME280;6600;51.362;6.686;2023-01-28T12:48:33;102553.13;;;3.71;80.89
13068;BME280;6600;51.362;6.686;2023-01-28T12:51:13;102546.19;;;3.79;81.06
13068;BME280;6600;51.362;6.686;2023-01-28T12:53:45;102526.16;;;3.86;80.78
13068;BME280;6600;51.362;6.686;2023-01-28T12:56:26;102531.13;;;3.80;80.05
13068;BME280;6600;51.362;6.686;2023-01-28T12:59:51;102536.94;;;3.74;79.35
13068;BME280;6600;51.362;6.686;2023-01-28T13:04:53;102561.53;;;3.76;80.93
13068;BME280;6600;51.362;6.686;2023-01-28T13:07:35;102563.78;;;3.80;79.77
13068;BME280;6600;51.362;6.686;2023-01-28T13:10:09;102574.56;;;3.68;79.58
13068;BME280;6600;51.362;6.686;2023-01-28T13:12:39;102576.63;;;3.64;80.42
13068;BME280;6600;51.362;6.686;2023-01-28T13:15:11;102578.84;;;3.80;80.32
13068;BME280;6600;51.362;6.686;2023-01-28T13:17:37;102584.91;;;3.82;80.31
13068;BME280;6600;51.362;6.686;2023-01-28T13:20:13;102572.81;;;3.89;80.01
13068;BME280;6600;51.362;6.686;2023-01-28T13:22:39;102566.16;;;3.94;80.52
13068;BME280;6600;51.362;6.686;2023-01-28T13:25:32;102577.34;;;3.98;80.26
13068;BME280;6600;51.362;6.686;2023-01-28T13:28:00;102581.69;;;3.99;79.66
13068;BME280;6600;51.362;6.686;2023-01-28T13:30:46;102577.59;;;3.95;78.21
13068;BME280;6600;51.362;6.686;2023-01-28T13:33:29;102596.97;;;3.75;78.70
13068;BME280;6600;51.362;6.686;2023-01-28T13:35:55;102588.53;;;3.70;78.06
13068;BME280;6600;51.362;6.686;2023-01-28T13:38:21;102594.94;;;3.67;78.44
13068;BME280;6600;51.362;6.686;2023-01-28T13:41:13;102598.63;;;3.22;79.29
13068;BME280;6600;51.362;6.686;2023-01-28T13:43:40;102595.88;;;3.12;80.36
13068;BME280;6600;51.362;6.686;2023-01-28T13:46:10;102593.94;;;3.25;80.73
13068;BME280;6600;51.362;6.686;2023-01-28T13:48:41;102582.63;;;3.34;80.93
13068;BME280;6600;51.362;6.686;2023-01-28T13:51:22;102591.53;;;3.33;80.79
13068;BME280;6600;51.362;6.686;2023-01-28T13:53:56;102604.78;;;3.22;80.78
13068;BME280;6600;51.362;6.686;2023-01-28T13:56:30;102594.88;;;3.35;80.98
13068;BME280;6600;51.362;6.686;2023-01-28T14:00:04;102591.53;;;3.33;81.00
13068;BME280;6600;51.362;6.686;2023-01-28T14:08:16;102610.53;;;3.38;80.29
13068;BME280;6600;51.362;6.686;2023-01-28T14:16:11;102592.31;;;3.56;80.02
13068;BME280;6600;51.362;6.686;2023-01-28T14:18:42;102591.72;;;3.52;80.47
13068;BME280;6600;51.362;6.686;2023-01-28T14:21:12;102587.34;;;3.63;80.36
13068;BME280;6600;51.362;6.686;2023-01-28T14:23:44;102578.69;;;3.61;80.52
13068;BME280;6600;51.362;6.686;2023-01-28T14:29:55;102551.00;;;3.53;80.16
13068;BME280;6600;51.362;6.686;2023-01-28T14:32:28;102553.16;;;3.48;80.05
13068;BME280;6600;51.362;6.686;2023-01-28T14:34:58;102546.34;;;3.35;81.10
13068;BME280;6600;51.362;6.686;2023-01-28T14:37:28;102542.03;;;3.34;81.17
13068;BME280;6600;51.362;6.686;2023-01-28T14:39:59;102545.28;;;3.37;81.33
13068;BME280;6600;51.362;6.686;2023-01-28T14:42:38;102537.84;;;3.20;81.34
13068;BME280;6600;51.362;6.686;2023-01-28T14:50:29;102539.50;;;3.21;82.41
13068;BME280;6600;51.362;6.686;2023-01-28T14:56:02;102536.84;;;3.21;82.73
13068;BME280;6600;51.362;6.686;2023-01-28T14:58:36;102545.91;;;3.19;82.61
13068;BME280;6600;51.362;6.686;2023-01-28T15:01:03;102544.84;;;3.10;82.99
13068;BME280;6600;51.362;6.686;2023-01-28T15:03:29;102549.41;;;3.08;83.43